KPTW/PTW METAR and TAF weather

Enter ICAO airport designator
Station Type Date Time Source
KPTW METAR 2019/04/19 08:54 UTC NOAA

KPTW 190854Z AUTO 19008KT 10SM CLR 18/13 A2980 RMK AO2 SLP087 T01830133 56009


Station Type Date Time Source
KPTW Decoded METAR 2019/04/19 08:54 UTC NOAA

POTTSTOWN LIMERICK AIRPORT, PA, United States (KPTW) 40-14N 075-33W 89M
Apr 19, 2019 - 04:54 AM EDT / 2019.04.19 0854 UTC
Wind: from the S (190 degrees) at 9 MPH (8 KT):0
Visibility: 10 mile(s):0
Sky conditions: clear
Temperature: 64.9 F (18.3 C)
Dew Point: 55.9 F (13.3 C)
Relative Humidity: 72%
Pressure (altimeter): 29.8 in. Hg (1009 hPa)
Pressure tendency: 0.03 inches (0.9 hPa) lower than three hours ago
ob: KPTW 190854Z AUTO 19008KT 10SM CLR 18/13 A2980 RMK AO2 SLP087 T01830133 56009
cycle: 9

Station Type Date Time Source
KPTW TAF UTC NOAA

Error!

Example: see airport list